Time;durP1;ratioP1;P1;durP2;ratioP2;P2;SDS_P1;SDS_P2;PMS_P1;PMS_P2;Temp;Humidity;BMP_temperature;BMP_pressure;BME280_temperature;BME280_humidity;BME280_pressure;Samples;Min_cycle;Max_cycle;Signal;HPM_P1;HPM_P2
2023/01/31 00:00:24;;;;;;;7.53;1.80;;;;;;;-140.72;100.00;53204.63;5049976;28;20025;-69
2023/01/31 00:02:50;;;;;;;10.20;2.35;;;;;;;-140.72;100.00;53196.50;5054659;28;20020;-68
2023/01/31 00:05:16;;;;;;;5.47;1.50;;;;;;;-140.72;100.00;53239.13;5039532;28;20417;-68
2023/01/31 00:07:41;;;;;;;6.75;1.20;;;;;;;-140.72;100.00;53206.66;5049407;28;20525;-68
2023/01/31 00:10:07;;;;;;;5.85;1.95;;;;;;;-140.72;100.00;53235.06;5048873;28;20029;-69
2023/01/31 00:12:33;;;;;;;5.75;0.88;;;;;;;-140.72;100.00;53196.50;5051360;28;20016;-67
2023/01/31 00:14:59;;;;;;;3.42;1.77;;;;;;;-140.72;100.00;53188.38;5045777;28;20043;-67
2023/01/31 00:17:24;;;;;;;10.30;1.50;;;;;;;-140.72;100.00;53196.50;5042855;28;20028;-68
2023/01/31 00:19:49;;;;;;;12.15;1.77;;;;;;;-140.72;100.00;53243.19;5047733;28;20112;-68
2023/01/31 00:22:15;;;;;;;7.25;2.17;;;;;;;-140.72;100.00;53196.50;5046405;28;20037;-67
2023/01/31 00:24:40;;;;;;;2.58;0.80;;;;;;;-140.72;100.00;53198.53;5049830;28;20769;-68
2023/01/31 00:27:07;;;;;;;5.35;0.88;;;;;;;-140.72;100.00;53198.53;5055250;28;20124;-67
2023/01/31 00:29:34;;;;;;;3.10;1.05;;;;;;;-140.72;100.00;53166.06;5047385;28;20075;-67
2023/01/31 00:31:59;;;;;;;6.53;1.40;;;;;;;-140.72;100.00;53251.31;5039210;28;20055;-67
2023/01/31 00:34:24;;;;;;;5.03;1.13;;;;;;;-140.72;100.00;53186.34;5039746;28;20060;-69
2023/01/31 00:36:50;;;;;;;4.28;1.30;;;;;;;-140.72;100.00;53237.09;5040657;28;20025;-68
2023/01/31 00:39:15;;;;;;;8.20;1.27;;;;;;;-140.72;100.00;53216.78;5053702;28;20042;-68
2023/01/31 00:41:41;;;;;;;5.95;1.15;;;;;;;-140.72;100.00;53206.66;5048252;28;20445;-68
2023/01/31 00:44:06;;;;;;;11.10;1.65;;;;;;;-140.72;100.00;53237.09;5047230;28;20025;-68
2023/01/31 00:46:32;;;;;;;2.90;1.05;;;;;;;-140.72;100.00;53196.50;5041694;28;20102;-68
2023/01/31 00:48:58;;;;;;;7.03;1.42;;;;;;;-140.72;100.00;53198.53;5048989;28;20432;-68
2023/01/31 00:51:24;;;;;;;4.13;1.05;;;;;;;-140.72;100.00;53239.13;5046249;28;20362;-67
2023/01/31 00:53:50;;;;;;;6.00;1.42;;;;;;;-140.72;100.00;53228.97;5046568;28;20029;-69
2023/01/31 00:56:22;;;;;;;10.85;2.47;;;;;;;-140.72;100.00;53226.94;5057328;28;20049;-67
2023/01/31 00:58:51;;;;;;;3.40;0.88;;;;;;;-140.72;100.00;53204.63;5046664;28;20078;-68
2023/01/31 01:01:23;;;;;;;4.70;1.92;;;;;;;-140.72;100.00;53235.06;5048428;28;20081;-68
2023/01/31 01:03:49;;;;;;;7.53;2.08;;;;;;;-140.72;100.00;53245.22;5047522;28;20416;-69
2023/01/31 01:06:14;;;;;;;8.80;1.67;;;;;;;-140.72;100.00;53239.13;5047176;28;20025;-69
2023/01/31 01:08:41;;;;;;;6.57;1.60;;;;;;;-140.72;100.00;53204.63;5038713;28;20476;-69
2023/01/31 01:11:13;;;;;;;7.20;1.25;;;;;;;-140.72;100.00;53174.19;5049765;28;20035;-69
2023/01/31 01:13:40;;;;;;;8.38;1.55;;;;;;;-140.72;100.00;53214.78;5045173;28;20033;-68
2023/01/31 01:16:14;;;;;;;3.53;1.35;;;;;;;-140.72;100.00;53196.50;5046050;28;20069;-68
2023/01/31 01:18:40;;;;;;;6.63;1.42;;;;;;;-140.72;100.00;53218.81;5052343;28;20116;-67
2023/01/31 01:21:12;;;;;;;14.00;2.00;;;;;;;-140.72;100.00;53198.53;5048812;28;20028;-67
2023/01/31 01:23:39;;;;;;;5.57;1.02;;;;;;;-140.72;100.00;53218.81;5053734;28;20025;-67
2023/01/31 01:26:11;;;;;;;2.88;1.52;;;;;;;-140.72;100.00;53247.25;5044528;28;20033;-69
2023/01/31 01:28:39;;;;;;;4.20;1.15;;;;;;;-140.72;100.00;53202.59;5059776;28;20024;-67
2023/01/31 01:31:06;;;;;;;4.20;1.42;;;;;;;-140.72;100.00;53208.69;5059915;28;20052;-67
2023/01/31 01:33:32;;;;;;;11.80;2.03;;;;;;;-140.72;100.00;53216.78;5053384;28;20025;-67
2023/01/31 01:36:07;;;;;;;4.28;1.45;;;;;;;-140.72;100.00;53202.59;5052895;28;20680;-67
2023/01/31 01:38:36;;;;;;;5.82;1.35;;;;;;;-140.72;100.00;53255.34;5051390;28;20479;-67
2023/01/31 01:41:03;;;;;;;;;;;;;;;-140.72;100.00;53172.16;5052564;28;20036;-69
2023/01/31 01:43:45;;;;;;;10.73;1.42;;;;;;;-140.72;100.00;53224.91;5040455;28;19912;-67
2023/01/31 01:46:16;;;;;;;5.88;1.42;;;;;;;-140.72;100.00;53239.13;5044611;28;20108;-68
2023/01/31 01:48:45;;;;;;;9.55;1.65;;;;;;;-140.72;100.00;53206.66;5040229;28;20044;-67
2023/01/31 01:51:14;;;;;;;6.28;2.00;;;;;;;-140.72;100.00;53202.59;5051261;28;20021;-67
2023/01/31 01:53:42;;;;;;;4.88;1.65;;;;;;;-140.72;100.00;53184.31;5052609;28;20025;-69
2023/01/31 01:56:14;;;;;;;16.42;1.80;;;;;;;-140.72;100.00;53200.56;5055782;28;20137;-67
2023/01/31 01:58:59;;;;;;;14.23;2.10;;;;;;;-140.72;100.00;53222.88;5038465;28;20032;-68
2023/01/31 02:01:30;;;;;;;7.20;1.92;;;;;;;-140.72;100.00;53192.44;5050224;28;20024;-68
2023/01/31 02:03:56;;;;;;;5.40;1.85;;;;;;;-140.72;100.00;53216.78;5045419;28;20502;-67
2023/01/31 02:06:22;;;;;;;13.77;2.40;;;;;;;-140.72;100.00;53194.47;5042699;28;20135;-68
2023/01/31 02:08:48;;;;;;;5.90;1.80;;;;;;;-140.72;100.00;53180.25;5053133;28;20025;-69
2023/01/31 02:11:21;;;;;;;6.18;2.25;;;;;;;-140.72;100.00;53186.34;5048099;28;20036;-68
2023/01/31 02:13:52;;;;;;;7.30;1.98;;;;;;;-140.72;100.00;53170.13;5048428;28;20133;-68
2023/01/31 02:16:18;;;;;;;10.20;3.15;;;;;;;-140.72;100.00;53178.22;5052367;28;20021;-68
2023/01/31 02:18:44;;;;;;;8.50;2.45;;;;;;;-140.72;100.00;53253.31;5051226;28;20029;-68
2023/01/31 02:21:15;;;;;;;3.15;1.52;;;;;;;-140.72;100.00;53196.50;5050531;28;20029;-68
2023/01/31 02:24:08;;;;;;;11.70;1.85;;;;;;;-140.72;100.00;53153.88;5022453;28;20030;-68
2023/01/31 02:26:42;;;;;;;7.65;2.33;;;;;;;-140.72;100.00;53204.63;5048627;28;20024;-68
2023/01/31 02:29:45;;;;;;;7.55;1.85;;;;;;;-140.72;100.00;53170.13;5050923;28;20033;-68
2023/01/31 02:32:35;;;;;;;7.00;1.85;;;;;;;-140.72;100.00;53214.78;5040172;28;20408;-67
2023/01/31 02:35:39;;;;;;;12.77;2.75;;;;;;;-140.72;100.00;53190.41;5048722;28;20029;-67
2023/01/31 02:38:19;;;;;;;18.55;2.92;;;;;;;-140.72;100.00;53172.16;5045342;28;20040;-68
2023/01/31 02:40:53;;;;;;;6.22;2.15;;;;;;;-140.72;100.00;53153.88;5049026;28;20078;-68
2023/01/31 02:44:57;;;;;;;14.98;2.60;;;;;;;-140.72;100.00;53210.72;5046052;28;20508;-67
2023/01/31 02:46:38;;;;;;;4.18;1.88;;;;;;;-140.72;100.00;53218.81;5050866;28;20128;-68
2023/01/31 02:49:35;;;;;;;13.45;2.83;;;;;;;-140.72;100.00;53180.25;5049872;28;20103;-67
2023/01/31 02:52:34;;;;;;;13.52;3.10;;;;;;;-140.72;100.00;53247.25;5044194;28;20052;-68
2023/01/31 02:57:57;;;;;;;20.27;3.88;;;;;;;-140.72;100.00;53228.97;5044565;28;20036;-67
2023/01/31 03:00:25;;;;;;;11.98;2.67;;;;;;;-140.72;100.00;53168.09;5049762;28;20033;-68
2023/01/31 03:02:50;;;;;;;16.13;3.20;;;;;;;-140.72;100.00;53184.31;5049594;28;20449;-67
2023/01/31 03:05:18;;;;;;;7.75;2.03;;;;;;;-140.72;100.00;53170.13;5057365;28;20035;-68
2023/01/31 03:07:51;;;;;;;10.20;2.70;;;;;;;-140.72;100.00;53145.75;5050362;28;20029;-68
2023/01/31 03:10:52;;;;;;;9.48;3.28;;;;;;;-140.72;100.00;53149.81;5059691;28;20025;-67
2023/01/31 03:13:53;;;;;;;8.98;2.53;;;;;;;-140.72;100.00;53168.09;5049155;28;20108;-68
2023/01/31 03:19:18;;;;;;;9.32;3.70;;;;;;;-140.72;100.00;53178.22;5045043;28;20036;-68
2023/01/31 03:21:49;;;;;;;12.40;2.88;;;;;;;-140.72;100.00;53180.25;5050716;28;20107;-68
2023/01/31 03:24:16;;;;;;;9.93;2.92;;;;;;;-140.72;100.00;53174.19;5053357;28;20029;-68
2023/01/31 03:26:43;;;;;;;8.73;2.05;;;;;;;-140.72;100.00;53162.00;5057657;28;20025;-68
2023/01/31 03:29:12;;;;;;;16.67;3.38;;;;;;;-140.72;100.00;53198.53;5058172;28;20024;-68
2023/01/31 03:31:42;;;;;;;9.73;4.00;;;;;;;-140.72;100.00;53200.56;5052477;28;20520;-68
2023/01/31 03:34:11;;;;;;;12.65;2.78;;;;;;;-140.72;100.00;53166.06;5041973;28;20036;-68
2023/01/31 03:36:57;;;;;;;6.57;2.15;;;;;;;-140.72;100.00;53162.00;5042076;28;20155;-68
2023/01/31 03:39:31;;;;;;;4.82;2.33;;;;;;;-140.72;100.00;53170.13;5035569;28;20024;-69
2023/01/31 03:42:08;;;;;;;7.78;3.05;;;;;;;-140.72;100.00;53186.34;5051542;28;20389;-68
2023/01/31 03:45:02;;;;;;;8.35;3.33;;;;;;;-140.72;100.00;53194.47;5040018;28;20045;-67
2023/01/31 03:47:38;;;;;;;8.88;3.65;;;;;;;-140.72;100.00;53139.69;5058261;28;20052;-68
2023/01/31 03:50:11;;;;;;;13.18;3.40;;;;;;;-140.72;100.00;53170.13;5058984;28;20024;-68
2023/01/31 03:52:42;;;;;;;9.90;3.03;;;;;;;-140.72;100.00;53200.56;5060407;28;20465;-69
2023/01/31 03:55:23;;;;;;;5.75;2.22;;;;;;;-140.72;100.00;53174.19;5038705;28;20216;-68
2023/01/31 03:57:53;;;;;;;6.05;2.13;;;;;;;-140.72;100.00;53170.13;5045999;28;20020;-69
2023/01/31 04:00:21;;;;;;;14.23;3.10;;;;;;;-140.72;100.00;53174.19;5045522;28;20049;-68
2023/01/31 04:02:51;;;;;;;19.58;4.20;;;;;;;-140.72;100.00;53149.81;5042799;28;20083;-68
2023/01/31 04:05:21;;;;;;;9.57;3.15;;;;;;;-140.72;100.00;53174.19;5042318;28;20029;-70
2023/01/31 04:07:47;;;;;;;12.43;2.75;;;;;;;-140.72;100.00;53162.00;5053947;28;20017;-68
2023/01/31 04:10:17;;;;;;;12.25;3.20;;;;;;;-140.72;100.00;53210.72;5049505;28;20025;-68
2023/01/31 04:12:44;;;;;;;8.27;2.50;;;;;;;-140.72;100.00;53151.84;5048576;28;20025;-67
2023/01/31 04:15:10;;;;;;;6.40;2.15;;;;;;;-140.72;100.00;53206.66;5038397;28;20027;-68
2023/01/31 04:17:36;;;;;;;13.85;2.65;;;;;;;-140.72;100.00;53151.84;5054254;28;20024;-68
2023/01/31 04:20:02;;;;;;;5.72;2.42;;;;;;;-140.72;100.00;53166.06;5049199;28;20028;-68
2023/01/31 04:22:28;;;;;;;9.43;2.15;;;;;;;-140.72;100.00;53166.06;5058901;28;20024;-69
2023/01/31 04:24:53;;;;;;;7.25;2.28;;;;;;;-140.72;100.00;53170.13;5058561;28;20036;-68
2023/01/31 04:27:18;;;;;;;14.98;3.05;;;;;;;-140.72;100.00;53172.16;5040625;28;20053;-67
2023/01/31 04:29:44;;;;;;;10.57;3.25;;;;;;;-140.72;100.00;53157.94;5056615;28;20044;-69
2023/01/31 04:32:10;;;;;;;6.82;2.28;;;;;;;-140.72;100.00;53188.38;5051148;28;20473;-68
2023/01/31 04:34:35;;;;;;;6.90;2.13;;;;;;;-140.72;100.00;53180.25;5056480;28;20115;-67
2023/01/31 04:37:01;;;;;;;9.07;3.03;;;;;;;-140.72;100.00;53182.28;5050467;28;20496;-68
2023/01/31 04:39:27;;;;;;;8.15;2.53;;;;;;;-140.72;100.00;53182.28;5058679;28;20025;-68
2023/01/31 04:41:52;;;;;;;8.73;3.40;;;;;;;-140.72;100.00;53194.47;5043513;28;20024;-67
2023/01/31 04:44:20;;;;;;;10.80;2.45;;;;;;;-140.72;100.00;53170.13;5049264;28;20041;-68
2023/01/31 04:46:46;;;;;;;7.32;2.42;;;;;;;-140.72;100.00;53178.22;5049215;28;20037;-68
2023/01/31 04:49:12;;;;;;;8.95;3.13;;;;;;;-140.72;100.00;53137.66;5064262;28;20029;-67
2023/01/31 04:51:38;;;;;;;8.98;3.15;;;;;;;-140.72;100.00;53182.28;5050984;28;20139;-67
2023/01/31 04:54:03;;;;;;;7.20;2.55;;;;;;;-140.72;100.00;53182.28;5042405;28;20448;-67
2023/01/31 04:56:30;;;;;;;18.58;2.97;;;;;;;-140.72;100.00;53224.91;5054084;28;20392;-68
2023/01/31 04:58:56;;;;;;;6.47;2.45;;;;;;;-140.72;100.00;53216.78;5049194;28;20044;-67
2023/01/31 05:01:22;;;;;;;7.97;2.80;;;;;;;-140.72;100.00;53149.81;5055099;28;20024;-67
2023/01/31 05:03:50;;;;;;;17.40;3.80;;;;;;;-140.72;100.00;53176.22;5047317;28;20120;-67
2023/01/31 05:06:15;;;;;;;8.13;2.80;;;;;;;-140.72;100.00;53166.06;5047147;28;20044;-67
2023/01/31 05:08:41;;;;;;;14.75;3.47;;;;;;;-140.72;100.00;53153.88;5043919;28;20025;-67
2023/01/31 05:11:08;;;;;;;9.20;3.03;;;;;;;-140.72;100.00;53182.28;5051365;28;20465;-67
2023/01/31 05:13:37;;;;;;;8.77;2.38;;;;;;;-140.72;100.00;53164.03;5050886;28;20024;-67
2023/01/31 05:16:07;;;;;;;16.73;3.20;;;;;;;-140.72;100.00;53192.44;5044164;28;20112;-67
2023/01/31 05:18:36;;;;;;;11.70;4.05;;;;;;;-140.72;100.00;53166.06;5042420;28;20048;-68
2023/01/31 05:21:04;;;;;;;8.75;2.60;;;;;;;-140.72;100.00;53153.88;5043384;28;20374;-67
2023/01/31 05:23:29;;;;;;;11.85;3.22;;;;;;;-140.72;100.00;53200.56;5039018;28;20132;-68
2023/01/31 05:25:55;;;;;;;5.88;2.78;;;;;;;-140.72;100.00;53159.97;5039014;28;20104;-67
2023/01/31 05:28:21;;;;;;;7.35;2.45;;;;;;;-140.72;100.00;53174.19;5042836;28;20022;-67
2023/01/31 05:30:46;;;;;;;17.15;2.55;;;;;;;-140.72;100.00;53168.09;5021008;28;20032;-68
2023/01/31 05:33:12;;;;;;;17.15;3.45;;;;;;;-140.72;100.00;53164.03;5038734;28;20108;-67
2023/01/31 05:35:38;;;;;;;11.70;2.75;;;;;;;-140.72;100.00;53151.84;5035154;28;20037;-68
2023/01/31 05:38:03;;;;;;;19.08;2.85;;;;;;;-140.72;100.00;53174.19;5041273;28;20462;-67
2023/01/31 05:40:29;;;;;;;10.80;3.22;;;;;;;-140.72;100.00;53162.00;5042321;28;20025;-67
2023/01/31 05:42:56;;;;;;;8.38;2.05;;;;;;;-140.72;100.00;53149.81;5045191;28;20021;-67
2023/01/31 05:45:21;;;;;;;12.10;2.85;;;;;;;-140.72;100.00;53202.59;5047648;28;20048;-66
2023/01/31 05:47:48;;;;;;;10.02;2.15;;;;;;;-140.72;100.00;53172.16;5048587;28;20020;-67
2023/01/31 05:50:13;;;;;;;5.22;1.75;;;;;;;-140.72;100.00;53186.34;5043590;28;20041;-67
2023/01/31 05:52:38;;;;;;;5.70;2.13;;;;;;;-140.72;100.00;53166.06;5054468;28;20475;-68
2023/01/31 05:55:04;;;;;;;11.20;2.75;;;;;;;-140.72;100.00;53141.69;5059447;28;20059;-67
2023/01/31 05:57:33;;;;;;;9.38;3.20;;;;;;;-140.72;100.00;53176.22;5050909;28;20025;-68
2023/01/31 05:59:59;;;;;;;4.65;1.98;;;;;;;-140.72;100.00;53155.91;5041100;28;20037;-67
2023/01/31 06:02:25;;;;;;;8.82;2.92;;;;;;;-140.72;100.00;53190.41;5038286;28;20453;-67
2023/01/31 06:04:50;;;;;;;4.93;1.90;;;;;;;-140.72;100.00;53180.25;5048199;28;20028;-67
2023/01/31 06:07:15;;;;;;;12.48;2.30;;;;;;;-140.72;100.00;53125.47;5046930;28;20024;-68
2023/01/31 06:09:41;;;;;;;10.65;2.40;;;;;;;-140.72;100.00;53184.31;5047453;28;20056;-68
2023/01/31 06:12:13;;;;;;;5.95;1.95;;;;;;;-140.72;100.00;53151.84;5063449;28;20032;-69
2023/01/31 06:14:38;;;;;;;3.65;1.35;;;;;;;-140.72;100.00;53184.31;5048092;28;20037;-67
2023/01/31 06:17:04;;;;;;;18.30;2.75;;;;;;;-140.72;100.00;53176.22;5055875;28;20081;-69
2023/01/31 06:19:29;;;;;;;8.50;2.42;;;;;;;-140.72;100.00;53149.81;5052788;28;20025;-67
2023/01/31 06:21:54;;;;;;;4.75;1.52;;;;;;;-140.72;100.00;53172.16;5050848;28;20365;-67
2023/01/31 06:24:20;;;;;;;6.85;2.33;;;;;;;-140.72;100.00;53174.19;5046423;28;20075;-68
2023/01/31 06:26:45;;;;;;;8.95;1.45;;;;;;;-140.72;100.00;53164.03;5052005;28;20052;-68
2023/01/31 06:29:11;;;;;;;8.10;2.30;;;;;;;-140.72;100.00;53145.75;5042871;28;20100;-67
2023/01/31 06:31:36;;;;;;;7.45;2.30;;;;;;;-140.72;100.00;53157.94;5050771;28;20445;-67
2023/01/31 06:34:02;;;;;;;4.97;1.48;;;;;;;-140.72;100.00;53184.31;5047469;28;20417;-66
2023/01/31 06:36:30;;;;;;;8.77;1.88;;;;;;;-140.72;100.00;53190.41;5052214;28;20028;-67
2023/01/31 06:38:55;;;;;;;5.25;1.80;;;;;;;-140.72;100.00;53155.91;5050029;28;20020;-67
2023/01/31 06:41:20;;;;;;;8.65;2.03;;;;;;;-140.72;100.00;53143.72;5056600;28;20044;-69
2023/01/31 06:43:46;;;;;;;5.13;1.70;;;;;;;-140.72;100.00;53119.38;5045919;28;20036;-67
2023/01/31 06:46:12;;;;;;;5.93;1.45;;;;;;;-140.72;100.00;53131.56;5050204;28;20041;-68
2023/01/31 06:48:37;;;;;;;4.15;2.33;;;;;;;-140.72;100.00;53190.41;5038665;28;20036;-68
2023/01/31 06:51:05;;;;;;;5.43;1.17;;;;;;;-140.72;100.00;53192.44;5051192;28;20066;-68
2023/01/31 06:53:31;;;;;;;14.35;2.35;;;;;;;-140.72;100.00;53186.34;5042482;28;20035;-68
2023/01/31 06:55:56;;;;;;;7.55;2.08;;;;;;;-140.72;100.00;53159.97;5051267;28;20045;-68
2023/01/31 06:58:22;;;;;;;7.07;1.88;;;;;;;-140.72;100.00;53133.59;5047126;28;20025;-68
2023/01/31 07:00:47;;;;;;;8.95;2.92;;;;;;;-140.72;100.00;53157.94;5041393;28;20047;-69
2023/01/31 07:03:13;;;;;;;5.47;1.60;;;;;;;-140.72;100.00;53153.88;5036329;28;20047;-69
2023/01/31 07:05:38;;;;;;;12.95;2.25;;;;;;;-140.72;100.00;53166.06;5044051;28;20045;-69
2023/01/31 07:08:04;;;;;;;8.50;1.67;;;;;;;-140.72;100.00;53182.28;5034243;28;20359;-70
2023/01/31 07:10:30;;;;;;;8.68;1.58;;;;;;;-140.72;100.00;53176.22;5040813;28;20048;-68
2023/01/31 07:12:55;;;;;;;4.93;1.73;;;;;;;-140.72;100.00;53190.41;5045264;28;20025;-69
2023/01/31 07:15:20;;;;;;;5.43;2.05;;;;;;;-140.72;100.00;53170.13;5059940;28;20029;-69
2023/01/31 07:17:46;;;;;;;5.45;1.75;;;;;;;-140.72;100.00;53174.19;5047963;28;20040;-69
2023/01/31 07:20:12;;;;;;;6.22;1.42;;;;;;;-140.72;100.00;53155.91;5049963;28;20060;-68
2023/01/31 07:22:37;;;;;;;5.72;1.88;;;;;;;-140.72;100.00;53166.06;5051381;28;20017;-69
2023/01/31 07:25:03;;;;;;;9.30;1.48;;;;;;;-140.72;100.00;53139.69;5065279;28;20020;-68
2023/01/31 07:27:28;;;;;;;6.88;2.15;;;;;;;-140.72;100.00;53162.00;5060581;28;20021;-69
2023/01/31 07:29:53;;;;;;;15.02;1.98;;;;;;;-140.72;100.00;53157.94;5049953;28;20032;-70
2023/01/31 07:32:19;;;;;;;6.05;1.25;;;;;;;-140.72;100.00;53170.13;5047217;28;20361;-68
2023/01/31 07:34:45;;;;;;;7.38;1.98;;;;;;;-140.72;100.00;53180.25;5048323;28;20171;-69
2023/01/31 07:37:10;;;;;;;8.07;1.48;;;;;;;-140.72;100.00;53164.03;5047130;28;20470;-69
2023/01/31 07:39:36;;;;;;;5.68;0.95;;;;;;;-140.72;100.00;53157.94;5049634;28;20101;-69
2023/01/31 07:42:01;;;;;;;3.50;1.17;;;;;;;-140.72;100.00;53168.09;5043791;28;20018;-69
2023/01/31 07:44:26;;;;;;;4.60;1.33;;;;;;;-140.72;100.00;53190.41;5056164;28;20028;-69
2023/01/31 07:46:53;;;;;;;9.88;1.75;;;;;;;-140.72;100.00;53137.66;5050319;28;20029;-68
2023/01/31 07:49:19;;;;;;;4.30;1.02;;;;;;;-140.72;100.00;53157.94;5049579;28;20028;-69
2023/01/31 07:51:45;;;;;;;9.38;1.38;;;;;;;-140.72;100.00;53168.09;5033814;28;20109;-69
2023/01/31 07:54:11;;;;;;;9.35;1.50;;;;;;;-140.72;100.00;53157.94;5041085;28;20062;-68
2023/01/31 07:56:37;;;;;;;3.15;1.27;;;;;;;-140.72;100.00;53137.66;5062970;28;20126;-69
2023/01/31 07:59:03;;;;;;;7.15;2.10;;;;;;;-140.72;100.00;53147.78;5050436;28;20029;-70
2023/01/31 08:04:14;;;;;;;3.60;1.05;;;;;;;-140.72;100.00;53151.84;5054194;28;20119;-68
2023/01/31 08:06:41;;;;;;;5.97;1.23;;;;;;;-140.72;100.00;53147.78;5061288;28;20049;-70
2023/01/31 08:09:07;;;;;;;2.85;1.13;;;;;;;-140.72;100.00;53137.66;5050192;28;20106;-69
2023/01/31 08:11:33;;;;;;;5.88;1.80;;;;;;;-140.72;100.00;53166.06;5048512;28;20491;-69
2023/01/31 08:13:58;;;;;;;2.92;1.23;;;;;;;-140.72;100.00;53135.63;5049985;28;20024;-70
2023/01/31 08:16:23;;;;;;;7.22;1.17;;;;;;;-140.72;100.00;53157.94;5046854;28;20055;-68
2023/01/31 08:18:51;;;;;;;2.65;0.70;;;;;;;-140.72;100.00;53157.94;5038914;28;20057;-69
2023/01/31 08:21:17;;;;;;;3.20;0.77;;;;;;;-140.72;100.00;53127.50;5057825;28;20041;-68
2023/01/31 08:23:43;;;;;;;4.28;1.38;;;;;;;-140.72;100.00;53170.13;5044670;28;20033;-68
2023/01/31 08:26:17;;;;;;;3.72;0.88;;;;;;;-140.72;100.00;53125.47;5039834;28;20056;-69
2023/01/31 08:28:44;;;;;;;5.15;0.77;;;;;;;-140.72;100.00;53113.28;5054563;28;20081;-69
2023/01/31 08:31:16;;;;;;;4.38;0.85;;;;;;;-140.72;100.00;53139.69;5057508;28;20457;-69
2023/01/31 08:33:41;;;;;;;4.43;0.75;;;;;;;-140.72;100.00;53182.28;5036630;28;20103;-69
2023/01/31 08:36:16;;;;;;;3.38;1.55;;;;;;;-140.72;100.00;53162.00;5049635;28;20104;-68
2023/01/31 08:38:43;;;;;;;11.25;1.50;;;;;;;-140.72;100.00;53159.97;5036926;28;20118;-69
2023/01/31 08:41:09;;;;;;;10.63;1.23;;;;;;;-140.72;100.00;53155.91;5060989;28;20146;-69
2023/01/31 08:43:36;;;;;;;4.43;1.27;;;;;;;-140.72;100.00;53159.97;5050114;28;20469;-69
2023/01/31 08:46:02;;;;;;;10.32;1.48;;;;;;;-140.72;100.00;53155.91;5048680;28;20400;-68
2023/01/31 08:48:27;;;;;;;3.53;1.20;;;;;;;-140.72;100.00;53184.31;5050057;28;20036;-68
2023/01/31 08:50:53;;;;;;;11.93;1.17;;;;;;;-140.72;100.00;53168.09;5036309;28;20044;-69
2023/01/31 08:53:18;;;;;;;5.95;1.35;;;;;;;-140.72;100.00;53147.78;5061345;28;20421;-68
2023/01/31 08:55:44;;;;;;;2.85;1.20;;;;;;;-140.72;100.00;53145.75;5048174;28;20041;-67
2023/01/31 08:58:09;;;;;;;4.20;1.42;;;;;;;-140.72;100.00;53103.16;5043094;28;20021;-68
2023/01/31 09:00:35;;;;;;;6.63;1.17;;;;;;;-140.72;100.00;53151.84;5041913;28;20461;-68
2023/01/31 09:03:00;;;;;;;3.55;1.00;;;;;;;-140.72;100.00;53151.84;5049149;28;20106;-69
2023/01/31 09:05:28;;;;;;;1.80;0.60;;;;;;;-140.72;100.00;53174.19;5062321;28;20020;-69
2023/01/31 09:07:56;;;;;;;7.70;1.73;;;;;;;-140.72;100.00;53147.78;5055018;28;20051;-69
2023/01/31 09:10:23;;;;;;;10.50;1.80;;;;;;;-140.72;100.00;53153.88;5054672;28;20024;-69
2023/01/31 09:12:48;;;;;;;7.07;1.27;;;;;;;-140.72;100.00;53137.66;5060204;28;20049;-68
2023/01/31 09:15:14;;;;;;;4.57;1.50;;;;;;;-140.72;100.00;53117.34;5047856;28;20108;-68
2023/01/31 09:17:39;;;;;;;2.25;0.70;;;;;;;-140.72;100.00;53155.91;5048929;28;20454;-68
2023/01/31 09:20:08;;;;;;;2.35;0.88;;;;;;;-140.72;100.00;53141.69;5058260;28;20016;-68
2023/01/31 09:22:35;;;;;;;7.68;1.60;;;;;;;-140.72;100.00;53143.72;5037670;28;20032;-69
2023/01/31 09:25:01;;;;;;;11.65;1.90;;;;;;;-140.72;100.00;53113.28;5047664;28;20083;-69
2023/01/31 09:27:27;;;;;;;8.20;1.83;;;;;;;-140.72;100.00;53170.13;5064160;28;20040;-69
2023/01/31 09:29:53;;;;;;;3.10;1.08;;;;;;;-140.72;100.00;53117.34;5051717;28;20033;-69
2023/01/31 09:32:20;;;;;;;5.00;1.38;;;;;;;-140.72;100.00;53123.44;5057911;28;20389;-68
2023/01/31 09:34:47;;;;;;;3.60;0.85;;;;;;;-140.72;100.00;53109.22;5045968;28;20100;-69
2023/01/31 09:37:13;;;;;;;5.57;1.58;;;;;;;-140.72;100.00;53076.75;5057031;28;20123;-69
2023/01/31 09:39:39;;;;;;;5.38;0.85;;;;;;;-140.72;100.00;53101.13;5060337;28;20096;-69
2023/01/31 09:42:17;;;;;;;6.18;1.90;;;;;;;-140.72;100.00;53093.00;5052532;28;20029;-69
2023/01/31 09:44:47;;;;;;;4.60;1.38;;;;;;;-140.72;100.00;53117.34;5051511;28;20100;-70
2023/01/31 09:47:19;;;;;;;4.53;1.55;;;;;;;-140.72;100.00;53135.63;5053442;28;20029;-69
2023/01/31 09:49:51;;;;;;;7.50;2.90;;;;;;;-140.72;100.00;53133.59;5040348;28;20392;-70
2023/01/31 09:52:17;;;;;;;6.72;1.63;;;;;;;-140.72;100.00;53107.19;5053545;28;20472;-69
2023/01/31 09:54:43;;;;;;;10.68;1.63;;;;;;;-140.72;100.00;53101.13;5039719;28;20033;-68
2023/01/31 09:57:20;;;;;;;4.97;1.52;;;;;;;-140.72;100.00;53097.06;5051389;28;20074;-69
2023/01/31 10:00:04;;;;;;;4.65;1.27;;;;;;;-140.72;100.00;53113.28;5039357;28;20017;-69
2023/01/31 10:02:38;;;;;;;6.00;1.30;;;;;;;-140.72;100.00;53105.19;5052421;28;20111;-68
2023/01/31 10:05:32;;;;;;;7.57;1.75;;;;;;;-140.72;100.00;53076.75;5052371;28;20085;-69
2023/01/31 10:08:34;;;;;;;8.75;2.10;;;;;;;-140.72;100.00;53109.22;5040775;28;20029;-69
2023/01/31 10:11:05;;;;;;;4.07;1.20;;;;;;;-140.72;100.00;53123.44;5044867;28;20017;-69
2023/01/31 10:13:35;;;;;;;6.32;2.03;;;;;;;-140.72;100.00;53105.19;5045833;28;20024;-69
2023/01/31 10:16:03;;;;;;;3.92;1.55;;;;;;;-140.72;100.00;53093.00;5057537;28;20094;-69
2023/01/31 10:18:38;;;;;;;3.75;0.93;;;;;;;-140.72;100.00;53038.19;5069378;28;20025;-69
2023/01/31 10:21:17;;;;;;;7.30;1.52;;;;;;;-140.72;100.00;53137.66;5040638;28;20122;-69
2023/01/31 10:23:47;;;;;;;10.32;2.13;;;;;;;-140.72;100.00;53101.13;5047080;28;20474;-69
2023/01/31 10:26:18;;;;;;;4.68;1.90;;;;;;;-140.72;100.00;53111.25;5052362;28;20031;-69
2023/01/31 10:28:53;;;;;;;4.57;1.40;;;;;;;-140.72;100.00;53119.38;5049727;28;20028;-70
2023/01/31 10:31:40;;;;;;;7.95;1.88;;;;;;;-140.72;100.00;53105.19;5059980;28;20457;-70
2023/01/31 10:34:12;;;;;;;4.00;1.00;;;;;;;-140.72;100.00;53101.13;5043091;28;20031;-70
2023/01/31 10:36:56;;;;;;;4.32;1.40;;;;;;;-140.72;100.00;53086.91;5047453;28;20519;-69
2023/01/31 10:39:28;;;;;;;5.00;1.08;;;;;;;-140.72;100.00;53129.53;5050550;28;20021;-69
2023/01/31 10:41:53;;;;;;;7.80;1.40;;;;;;;-140.72;100.00;53058.50;5058048;28;20028;-69
2023/01/31 10:44:53;;;;;;;4.85;1.17;;;;;;;-140.72;100.00;53095.03;5047461;28;20025;-70
2023/01/31 10:47:25;;;;;;;8.63;1.60;;;;;;;-140.72;100.00;53076.75;5042967;28;20033;-69
2023/01/31 10:49:50;;;;;;;6.85;1.38;;;;;;;-140.72;100.00;53117.34;5048347;28;20028;-69
2023/01/31 10:52:38;;;;;;;6.72;1.48;;;;;;;-140.72;100.00;53111.25;5052194;28;20484;-70
2023/01/31 10:55:33;;;;;;;1.10;1.00;;;;;;;-140.72;100.00;53076.75;5052725;28;20098;-70
2023/01/31 10:57:58;;;;;;;2.97;1.20;;;;;;;-140.72;100.00;53076.75;5046799;28;20074;-70
2023/01/31 11:00:30;;;;;;;3.33;0.90;;;;;;;-140.72;100.00;53111.25;5051701;28;20049;-69
2023/01/31 11:02:57;;;;;;;5.90;2.42;;;;;;;-140.72;100.00;53097.06;5058516;28;20039;-70
2023/01/31 11:05:28;;;;;;;9.55;1.85;;;;;;;-140.72;100.00;53119.38;5047803;28;20052;-69
2023/01/31 11:08:05;;;;;;;8.05;1.70;;;;;;;-140.72;100.00;53099.09;5051859;28;20039;-69
2023/01/31 11:10:32;;;;;;;5.97;1.40;;;;;;;-140.72;100.00;53060.53;5050431;28;20028;-68
2023/01/31 11:13:00;;;;;;;9.60;1.90;;;;;;;-140.72;100.00;53078.78;5050164;28;20018;-69
2023/01/31 11:15:34;;;;;;;6.55;1.73;;;;;;;-140.72;100.00;53113.28;5044500;28;20040;-69
2023/01/31 11:18:00;;;;;;;5.85;1.00;;;;;;;-140.72;100.00;53086.91;5040656;28;20025;-68
2023/01/31 11:20:35;;;;;;;6.18;1.48;;;;;;;-140.72;100.00;53090.97;5044071;28;20454;-69
2023/01/31 11:23:03;;;;;;;6.88;1.55;;;;;;;-140.72;100.00;53070.69;5051256;28;20457;-68
2023/01/31 11:25:32;;;;;;;6.25;1.38;;;;;;;-140.72;100.00;53097.06;5043309;28;20060;-69